Benalla, Victoria

6:27 PM AEDT on January 28, 2015 (GMT +1100)
Benalla | Change Station
CLOSE
Current Station
Personal Weather Station
Location: Benalla, VIC
Elevation: 568 ft
Nearby Weather Stations

Elev 568 ft 36.56 °S, 146.00 °E | Updated 5 seconds ago

Clear
Clear
81.1 °F
Feels Like 80 °F
N
2.9
Wind Variable Wind from SSE
Gusts 2.9 mph

Today
High -- | Low -- °F
--% Chance of Precip.
Yesterday
High -- | Low -- °F
Precip. -- in
6:27 AM 8:30 PM
Waxing Gibbous, 62% visible
Pressure 29.89 in
Visibility -9999.0 miles
Clouds
Heat Index 80 °F
Dew Point 51 °F
Humidity 35%
Rainfall 0.00 in
Snow Depth Not available.
UV Not available.
Pollen Not available.
Air Quality Not available.
Flu Activity Not available.
SPECI YWGT 280713Z AUTO 14016G26KT //// // ////// 25/05 Q1012

More Conditions Fewer Conditions

Pressure 29.89 in
Visibility -9999.0 miles
Clouds
Heat Index 80 °F
Dew Point 51 °F
Humidity 35%
Rainfall 0.00 in
Snow Depth Not available.
UV Not available.
Pollen Not available.
Air Quality Not available.
Flu Activity Not available.
SPECI YWGT 280713Z AUTO 14016G26KT //// // ////// 25/05 Q1012

More Conditions Fewer Conditions

10-Day Weather Forecast

Almanac

Astronomy

Jan. 28, 2015 Rise Set
Actual Time
Civil Twilight
Nautical Twilight
Astronomical Twilight
Moon
Length of Visible Light
Length of Day
Tomorrow will be .
, % of the Moon is Illuminated

Today's Extremes

Country Highs Country Lows

Community

WunderPhotos

Upload Photos

1,791,117 photos uploaded!

WunderBlogs® & News

Nearby

Air Quality

  Air Quality AQ Index Pollutant
Not available.

Snow Depth

Station Depth Elevation

Earthquake Activity

City Distance Mag. Time & Date
Minimum magnitude displayed is 2.5.

Coastal Water Temperatures

Place Temperature

Nearby Weather Stations